createdAt,value
2022-08-22T00:00:31.483Z,1.73
2022-08-22T00:02:41.125Z,1.90
2022-08-22T00:02:47.156Z,1.67
2022-08-22T00:02:59.906Z,1.65
2022-08-22T00:03:08.941Z,1.80
2022-08-22T00:04:56.784Z,1.83
2022-08-22T00:07:16.618Z,1.90
2022-08-22T00:09:21.294Z,1.70
2022-08-22T00:11:28.585Z,1.65
2022-08-22T00:13:37.780Z,1.60
2022-08-22T00:15:59.764Z,1.88
2022-08-22T00:18:07.406Z,1.58
2022-08-22T00:20:15.535Z,1.60
2022-08-22T00:22:16.801Z,1.80
2022-08-22T00:24:20.916Z,1.40
2022-08-22T00:26:25.088Z,1.70
2022-08-22T00:28:26.571Z,1.92
2022-08-22T00:30:30.191Z,1.60
2022-08-22T00:32:41.079Z,1.70
2022-08-22T00:35:01.300Z,1.75
2022-08-22T00:37:08.799Z,1.65
2022-08-22T00:39:13.291Z,1.70
2022-08-22T00:41:20.376Z,1.60
2022-08-22T00:43:21.679Z,1.90
2022-08-22T00:45:31.513Z,1.60
2022-08-22T00:47:36.403Z,1.80
2022-08-22T00:49:49.913Z,1.65
2022-08-22T00:52:09.895Z,1.70
2022-08-22T00:54:28.772Z,1.45
2022-08-22T00:56:39.194Z,1.77
2022-08-22T00:58:59.629Z,1.73
2022-08-22T01:01:22.219Z,1.50
2022-08-22T01:03:23.865Z,1.50
2022-08-22T01:05:28.282Z,1.65
2022-08-22T01:07:38.634Z,1.70
2022-08-22T01:09:45.971Z,1.73
2022-08-22T01:11:57.458Z,1.80
2022-08-22T01:14:11.025Z,1.63
2022-08-22T01:16:27.742Z,1.67
2022-08-22T01:18:29.032Z,1.90
2022-08-22T01:20:46.882Z,1.30
2022-08-22T01:23:07.094Z,1.70
2022-08-22T01:25:27.193Z,1.60
2022-08-22T01:27:39.130Z,1.50
2022-08-22T01:30:02.038Z,1.70
2022-08-22T01:32:23.564Z,1.42
2022-08-22T01:34:28.386Z,1.80
2022-08-22T01:36:29.661Z,1.40
2022-08-22T01:38:43.801Z,1.40
2022-08-22T01:41:00.136Z,1.95
2022-08-22T01:43:08.258Z,1.75
2022-08-22T01:45:28.123Z,1.70
2022-08-22T01:47:42.419Z,1.70
2022-08-22T01:49:46.544Z,1.77
2022-08-22T01:51:56.892Z,1.80
2022-08-22T01:54:02.114Z,1.70
2022-08-22T01:56:06.895Z,1.52
2022-08-22T01:58:23.183Z,1.95
2022-08-22T02:00:34.823Z,1.77
2022-08-22T02:02:50.194Z,1.90
2022-08-22T02:05:05.442Z,1.60
2022-08-22T02:07:11.605Z,2.10
2022-08-22T02:09:23.153Z,1.70
2022-08-22T02:11:33.482Z,1.50
2022-08-22T02:13:43.582Z,1.65
2022-08-22T02:15:49.538Z,2.00
2022-08-22T02:17:56.486Z,1.90
2022-08-22T02:20:07.865Z,1.80
2022-08-22T02:22:27.719Z,1.60
2022-08-22T02:24:40.333Z,1.80
2022-08-22T02:26:46.900Z,1.55
2022-08-22T02:28:56.671Z,1.90
2022-08-22T02:33:00.061Z,1.63
2022-08-22T02:35:07.297Z,1.73
2022-08-22T02:37:11.486Z,2.40
2022-08-22T02:39:15.836Z,1.80
2022-08-22T02:41:23.067Z,1.75
2022-08-22T02:43:28.490Z,1.83
2022-08-22T02:45:43.760Z,1.80
2022-08-22T02:47:59.533Z,2.15
2022-08-22T02:50:13.225Z,1.90
2022-08-22T02:52:18.915Z,1.95
2022-08-22T02:54:46.288Z,1.80
2022-08-22T02:56:56.845Z,1.95
2022-08-22T03:01:03.709Z,2.08
2022-08-22T03:03:07.131Z,1.90
2022-08-22T03:05:18.105Z,2.15
2022-08-22T03:07:31.723Z,1.60
2022-08-22T03:09:43.450Z,1.80
2022-08-22T03:12:03.374Z,1.77
2022-08-22T03:14:07.452Z,1.60
2022-08-22T03:16:28.372Z,1.73
2022-08-22T03:18:32.494Z,1.70
2022-08-22T03:20:46.071Z,1.83
2022-08-22T03:22:54.102Z,1.55
2022-08-22T03:25:13.680Z,1.70
2022-08-22T03:27:41.230Z,1.80
2022-08-22T03:30:04.119Z,1.98
2022-08-22T03:32:25.683Z,1.83
2022-08-22T03:34:27.026Z,1.80
2022-08-22T03:36:29.634Z,1.33
2022-08-22T03:38:33.745Z,1.63
2022-08-22T03:40:45.899Z,1.63
2022-08-22T03:42:47.206Z,1.92
2022-08-22T03:45:08.697Z,1.83
2022-08-22T03:47:21.950Z,2.00
2022-08-22T03:49:40.042Z,1.65
2022-08-22T03:51:51.611Z,2.10
2022-08-22T03:54:15.983Z,1.90
2022-08-22T03:56:44.630Z,1.83
2022-08-22T03:58:48.697Z,1.70
2022-08-22T04:00:59.542Z,2.10
2022-08-22T04:03:00.853Z,1.80
2022-08-22T04:05:15.108Z,2.15
2022-08-22T04:07:36.194Z,1.92
2022-08-22T04:09:56.883Z,2.13
2022-08-22T04:12:08.704Z,2.13
2022-08-22T04:14:28.407Z,2.10
2022-08-22T04:16:30.113Z,2.30
2022-08-22T04:18:37.828Z,2.13
2022-08-22T04:20:41.992Z,1.83
2022-08-22T04:23:01.601Z,2.20
2022-08-22T04:25:17.257Z,1.77
2022-08-22T04:27:22.088Z,2.20
2022-08-22T04:29:26.759Z,2.10
2022-08-22T04:31:32.086Z,2.10
2022-08-22T04:33:37.783Z,2.00
2022-08-22T04:35:41.468Z,2.17
2022-08-22T04:37:56.414Z,2.03
2022-08-22T04:40:01.436Z,2.30
2022-08-22T04:42:30.748Z,1.90
2022-08-22T04:44:35.907Z,2.35
2022-08-22T04:46:44.606Z,2.17
2022-08-22T04:48:57.672Z,2.33
2022-08-22T04:51:12.969Z,2.38
2022-08-22T04:53:23.340Z,3.15
2022-08-22T04:55:39.582Z,2.60
2022-08-22T04:57:46.874Z,2.20
2022-08-22T04:59:49.274Z,2.30
2022-08-22T05:01:54.605Z,2.15
2022-08-22T05:04:05.403Z,2.20
2022-08-22T05:06:07.958Z,2.20
2022-08-22T05:08:11.704Z,2.10
2022-08-22T05:10:21.679Z,2.38
2022-08-22T05:12:30.094Z,2.20
2022-08-22T05:14:40.034Z,2.28
2022-08-22T05:16:43.807Z,2.22
2022-08-22T05:18:53.609Z,2.45
2022-08-22T05:20:56.530Z,2.03
2022-08-22T05:23:00.240Z,2.42
2022-08-22T05:25:04.719Z,2.20
2022-08-22T05:27:14.909Z,2.40
2022-08-22T05:29:19.977Z,2.47
2022-08-22T05:31:24.043Z,2.30
2022-08-22T05:33:29.792Z,2.55
2022-08-22T05:35:40.215Z,2.00
2022-08-22T05:37:44.578Z,2.53
2022-08-22T05:39:48.095Z,2.13
2022-08-22T05:41:50.157Z,3.05
2022-08-22T05:43:52.459Z,2.20
2022-08-22T05:45:55.754Z,2.50
2022-08-22T05:48:16.115Z,2.25
2022-08-22T05:50:24.197Z,2.90
2022-08-22T05:52:25.635Z,2.95
2022-08-22T05:54:34.438Z,3.00
2022-08-22T05:56:38.657Z,3.20
2022-08-22T05:58:41.275Z,2.50
2022-08-22T06:00:44.094Z,2.55
2022-08-22T06:03:08.527Z,3.00
2022-08-22T06:05:12.186Z,2.90
2022-08-22T06:07:26.586Z,3.38
2022-08-22T06:09:46.248Z,3.03
2022-08-22T06:11:54.538Z,2.78
2022-08-22T06:14:05.273Z,3.20
2022-08-22T06:16:16.832Z,2.85
2022-08-22T06:18:24.484Z,3.42
2022-08-22T06:20:33.408Z,2.65
2022-08-22T06:22:38.087Z,2.60
2022-08-22T06:24:40.027Z,3.08
2022-08-22T06:26:45.238Z,2.60
2022-08-22T06:28:55.185Z,2.90
2022-08-22T06:30:57.919Z,2.70
2022-08-22T06:33:12.546Z,3.30
2022-08-22T06:35:56.066Z,2.90
2022-08-22T06:37:59.846Z,3.10
2022-08-22T06:40:03.473Z,2.95
2022-08-22T06:42:15.867Z,2.72
2022-08-22T06:44:20.808Z,2.85
2022-08-22T06:46:23.215Z,2.95
2022-08-22T06:48:24.675Z,3.03
2022-08-22T06:50:26.084Z,3.10
2022-08-22T06:52:28.661Z,2.65
2022-08-22T06:54:34.375Z,2.78
2022-08-22T06:56:39.474Z,2.90
2022-08-22T06:58:45.717Z,2.70
2022-08-22T07:00:51.664Z,2.80
2022-08-22T07:03:25.840Z,2.88
2022-08-22T07:05:29.701Z,3.17
2022-08-22T07:07:31.338Z,3.20
2022-08-22T07:09:34.822Z,3.40
2022-08-22T07:11:37.989Z,2.35
2022-08-22T07:13:42.494Z,3.00
2022-08-22T07:15:50.639Z,2.55
2022-08-22T07:17:57.504Z,2.65
2022-08-22T07:19:59.372Z,2.50
2022-08-22T07:22:10.794Z,4.45
2022-08-22T07:24:17.369Z,2.70
2022-08-22T07:26:30.763Z,2.67
2022-08-22T07:28:36.894Z,2.70
2022-08-22T07:30:57.563Z,2.75
2022-08-22T07:33:25.150Z,2.50
2022-08-22T07:35:26.927Z,2.60
2022-08-22T07:37:47.157Z,2.45
2022-08-22T07:39:54.702Z,1.98
2022-08-22T07:42:00.657Z,2.58
2022-08-22T07:44:31.483Z,2.60
2022-08-22T07:46:38.247Z,2.75
2022-08-22T07:49:08.081Z,2.55
2022-08-22T07:53:19.605Z,2.72
2022-08-22T07:55:24.968Z,2.75
2022-08-22T07:57:34.703Z,3.00
2022-08-22T07:59:37.977Z,3.37
2022-08-22T08:01:43.514Z,2.97
2022-08-22T08:03:51.267Z,2.42
2022-08-22T08:05:53.798Z,2.03
2022-08-22T08:07:56.137Z,2.70
2022-08-22T08:10:03.512Z,2.17
2022-08-22T08:12:05.895Z,2.40
2022-08-22T08:14:08.175Z,2.47
2022-08-22T08:16:37.995Z,2.50
2022-08-22T08:18:39.701Z,2.40
2022-08-22T08:20:41.368Z,2.42
2022-08-22T08:22:46.011Z,2.55
2022-08-22T08:24:48.198Z,2.83
2022-08-22T08:27:11.667Z,2.67
2022-08-22T08:29:16.606Z,3.25
2022-08-22T08:31:27.474Z,3.05
2022-08-22T08:33:31.507Z,2.38
2022-08-22T08:35:42.294Z,2.60
2022-08-22T08:37:59.009Z,2.70
2022-08-22T08:40:01.136Z,2.63
2022-08-22T08:42:14.222Z,3.08
2022-08-22T08:44:31.016Z,3.20
2022-08-22T08:46:35.125Z,2.60
2022-08-22T08:49:00.568Z,2.40
2022-08-22T08:51:12.745Z,2.70
2022-08-22T08:53:32.423Z,2.55
2022-08-22T08:55:33.933Z,2.43
2022-08-22T08:57:43.766Z,2.70
2022-08-22T08:59:56.691Z,3.08
2022-08-22T09:02:04.358Z,2.75
2022-08-22T09:04:31.493Z,2.78
2022-08-22T09:06:42.537Z,2.47
2022-08-22T09:09:02.958Z,2.72
2022-08-22T09:13:34.492Z,3.65
2022-08-22T09:15:58.757Z,3.03
2022-08-22T09:18:13.299Z,4.93
2022-08-22T09:20:46.154Z,2.92
2022-08-22T09:22:50.102Z,2.75
2022-08-22T09:25:15.396Z,2.90
2022-08-22T09:27:29.829Z,2.95
2022-08-22T09:29:32.637Z,2.90
2022-08-22T09:31:51.552Z,2.60
2022-08-22T09:34:10.337Z,2.70
2022-08-22T09:36:32.077Z,2.40
2022-08-22T09:41:12.514Z,2.83
2022-08-22T09:43:22.901Z,2.53
2022-08-22T09:45:30.531Z,2.40
2022-08-22T09:47:43.892Z,3.10
2022-08-22T09:49:45.276Z,2.70
2022-08-22T09:51:58.159Z,2.45
2022-08-22T09:54:18.717Z,3.08
2022-08-22T09:56:30.149Z,3.30
2022-08-22T09:58:49.552Z,2.88
2022-08-22T10:00:59.454Z,2.50
2022-08-22T10:03:02.284Z,2.92
2022-08-22T10:05:06.768Z,2.88
2022-08-22T10:07:28.915Z,2.90
2022-08-22T10:09:46.514Z,2.70
2022-08-22T10:12:05.148Z,2.60
2022-08-22T10:14:22.964Z,2.70
2022-08-22T10:18:52.678Z,2.50
2022-08-22T10:20:58.356Z,2.45
2022-08-22T10:23:00.049Z,2.88
2022-08-22T10:25:05.720Z,2.90
2022-08-22T10:27:14.530Z,2.22
2022-08-22T10:29:34.799Z,2.78
2022-08-22T10:31:40.685Z,2.42
2022-08-22T10:34:05.822Z,2.58
2022-08-22T10:36:11.995Z,2.45
2022-08-22T10:38:20.324Z,2.42
2022-08-22T10:40:27.979Z,2.42
2022-08-22T10:42:34.131Z,2.40
2022-08-22T10:44:39.851Z,2.55
2022-08-22T10:46:48.587Z,2.58
2022-08-22T10:49:00.451Z,2.28
2022-08-22T10:51:17.000Z,2.85
2022-08-22T10:53:56.951Z,2.70
2022-08-22T10:56:07.155Z,2.33
2022-08-22T10:58:11.020Z,3.13
2022-08-22T11:00:35.920Z,2.88
2022-08-22T11:02:57.718Z,2.42
2022-08-22T11:05:02.934Z,2.28
2022-08-22T11:07:22.938Z,2.40
2022-08-22T11:09:36.971Z,2.20
2022-08-22T11:11:43.722Z,2.35
2022-08-22T11:13:54.224Z,2.58
2022-08-22T11:16:01.082Z,1.77
2022-08-22T11:18:24.415Z,1.85
2022-08-22T11:20:31.819Z,2.10
2022-08-22T11:22:39.678Z,2.13
2022-08-22T11:25:03.702Z,2.20
2022-08-22T11:27:07.281Z,2.20
2022-08-22T11:29:18.127Z,2.20
2022-08-22T11:31:21.475Z,2.80
2022-08-22T11:33:37.429Z,2.20
2022-08-22T11:35:51.839Z,2.63
2022-08-22T11:38:11.854Z,2.40
2022-08-22T11:40:13.230Z,2.40
2022-08-22T11:42:31.022Z,2.58
2022-08-22T11:44:49.955Z,2.22
2022-08-22T11:46:57.387Z,2.80
2022-08-22T11:49:02.425Z,2.80
2022-08-22T11:51:14.096Z,2.60
2022-08-22T11:53:21.305Z,2.05
2022-08-22T11:55:37.635Z,2.15
2022-08-22T11:57:41.738Z,2.35
2022-08-22T11:59:47.737Z,2.50
2022-08-22T12:01:59.397Z,2.10
2022-08-22T12:04:00.755Z,2.35
2022-08-22T12:06:23.684Z,2.33
2022-08-22T12:08:40.634Z,2.35
2022-08-22T12:11:07.000Z,2.38
2022-08-22T12:13:34.777Z,2.33
2022-08-22T12:15:42.835Z,2.45
2022-08-22T12:17:55.188Z,2.42
2022-08-22T12:20:25.151Z,2.33
2022-08-22T12:22:49.734Z,2.15
2022-08-22T12:25:02.713Z,2.10
2022-08-22T12:27:18.403Z,2.30
2022-08-22T12:29:44.994Z,2.22
2022-08-22T12:31:59.078Z,2.20
2022-08-22T12:34:13.937Z,2.97
2022-08-22T12:36:33.842Z,5.43
2022-08-22T12:38:42.830Z,2.30
2022-08-22T12:41:02.994Z,2.78
2022-08-22T12:43:18.865Z,2.80
2022-08-22T12:45:37.205Z,2.95
2022-08-22T12:47:53.408Z,2.35
2022-08-22T12:50:00.730Z,3.28
2022-08-22T12:52:19.491Z,3.05
2022-08-22T12:54:22.772Z,3.25
2022-08-22T12:56:42.833Z,3.03
2022-08-22T12:59:07.449Z,2.28
2022-08-22T13:01:10.272Z,2.13
2022-08-22T13:03:18.947Z,2.78
2022-08-22T13:05:25.594Z,2.25
2022-08-22T13:07:37.619Z,2.10
2022-08-22T13:09:43.162Z,2.85
2022-08-22T13:11:45.329Z,2.40
2022-08-22T13:13:56.536Z,2.30
2022-08-22T13:16:11.721Z,2.85
2022-08-22T13:18:31.334Z,2.40
2022-08-22T13:20:36.026Z,2.30
2022-08-22T13:22:39.990Z,2.45
2022-08-22T13:24:52.765Z,2.30
2022-08-22T13:26:56.827Z,2.03
2022-08-22T13:29:39.324Z,2.78
2022-08-22T13:31:36.566Z,2.60
2022-08-22T13:33:46.862Z,2.60
2022-08-22T13:37:58.575Z,2.40
2022-08-22T13:40:04.261Z,2.50
2022-08-22T13:42:07.679Z,2.53
2022-08-22T13:44:22.000Z,2.60
2022-08-22T13:46:28.144Z,2.38
2022-08-22T13:48:31.417Z,2.20
2022-08-22T13:50:52.968Z,2.55
2022-08-22T13:53:07.013Z,2.30
2022-08-22T13:55:12.446Z,2.40
2022-08-22T13:57:38.251Z,2.15
2022-08-22T14:00:06.169Z,2.40
2022-08-22T14:02:31.035Z,2.95
2022-08-22T14:04:36.680Z,2.22
2022-08-22T14:06:43.790Z,2.92
2022-08-22T14:08:46.125Z,2.50
2022-08-22T14:11:06.967Z,2.50
2022-08-22T14:13:10.994Z,2.22
2022-08-22T14:15:13.162Z,2.75
2022-08-22T14:17:21.147Z,2.60
2022-08-22T14:19:53.105Z,2.42
2022-08-22T14:22:01.782Z,2.10
2022-08-22T14:24:19.195Z,2.38
2022-08-22T14:26:33.149Z,2.20
2022-08-22T14:28:48.908Z,2.33
2022-08-22T14:31:00.489Z,2.45
2022-08-22T14:33:11.980Z,2.20
2022-08-22T14:35:37.618Z,2.33
2022-08-22T14:37:40.952Z,2.30
2022-08-22T14:39:46.614Z,2.42
2022-08-22T14:41:59.449Z,2.65
2022-08-22T14:44:05.432Z,2.40
2022-08-22T14:46:12.496Z,2.50
2022-08-22T14:48:30.660Z,2.30
2022-08-22T14:50:33.667Z,2.28
2022-08-22T14:52:40.550Z,2.42
2022-08-22T14:54:42.655Z,2.40
2022-08-22T14:56:45.635Z,2.20
2022-08-22T14:58:58.031Z,2.20
2022-08-22T15:01:09.810Z,2.33
2022-08-22T15:03:11.484Z,2.22
2022-08-22T15:05:15.174Z,2.40
2022-08-22T15:07:29.606Z,2.30
2022-08-22T15:09:53.162Z,2.33
2022-08-22T15:11:54.549Z,2.15
2022-08-22T15:14:12.562Z,2.10
2022-08-22T15:16:17.491Z,2.17
2022-08-22T15:18:28.443Z,2.17
2022-08-22T15:20:33.031Z,2.42
2022-08-22T15:22:38.801Z,2.28
2022-08-22T15:25:06.196Z,2.28
2022-08-22T15:27:10.166Z,2.30
2022-08-22T15:29:22.950Z,2.20
2022-08-22T15:31:24.980Z,2.45
2022-08-22T15:33:32.278Z,2.13
2022-08-22T15:35:39.002Z,2.10
2022-08-22T15:37:55.987Z,2.50
2022-08-22T15:40:00.598Z,2.42
2022-08-22T15:42:04.966Z,2.33
2022-08-22T15:44:15.022Z,2.28
2022-08-22T15:46:32.495Z,2.42
2022-08-22T15:48:36.686Z,2.60
2022-08-22T15:50:54.794Z,2.53
2022-08-22T15:53:08.962Z,2.20
2022-08-22T15:55:23.487Z,2.50
2022-08-22T15:57:28.397Z,2.20
2022-08-22T15:59:54.117Z,2.90
2022-08-22T16:02:09.801Z,2.40
2022-08-22T16:04:15.200Z,1.98
2022-08-22T16:06:36.455Z,2.97
2022-08-22T16:08:44.684Z,2.17
2022-08-22T16:11:06.121Z,1.90
2022-08-22T16:13:10.470Z,2.75
2022-08-22T16:15:32.061Z,2.50
2022-08-22T16:17:43.387Z,2.10
2022-08-22T16:19:44.718Z,2.40
2022-08-22T16:21:47.128Z,2.25
2022-08-22T16:23:51.274Z,2.67
2022-08-22T16:25:52.856Z,2.38
2022-08-22T16:27:55.413Z,2.15
2022-08-22T16:30:08.108Z,2.80
2022-08-22T16:32:11.266Z,3.47
2022-08-22T16:34:18.334Z,2.50
2022-08-22T16:36:41.846Z,2.30
2022-08-22T16:38:45.134Z,2.75
2022-08-22T16:40:47.200Z,3.05
2022-08-22T16:43:08.970Z,2.97
2022-08-22T16:45:28.897Z,2.33
2022-08-22T16:47:31.308Z,2.40
2022-08-22T16:49:34.252Z,2.35
2022-08-22T16:51:37.847Z,2.10
2022-08-22T16:53:45.884Z,2.55
2022-08-22T16:55:48.860Z,2.40
2022-08-22T16:58:06.447Z,2.70
2022-08-22T17:00:14.807Z,2.70
2022-08-22T17:02:29.973Z,2.88
2022-08-22T17:04:50.628Z,2.40
2022-08-22T17:07:11.023Z,2.67
2022-08-22T17:09:31.006Z,2.47
2022-08-22T17:11:32.490Z,2.55
2022-08-22T17:13:52.378Z,2.70
2022-08-22T17:16:15.490Z,2.28
2022-08-22T17:18:22.806Z,2.30
2022-08-22T17:20:32.041Z,2.10
2022-08-22T17:22:34.190Z,2.72
2022-08-22T17:25:07.703Z,2.30
2022-08-22T17:27:22.350Z,2.25
2022-08-22T17:29:32.175Z,2.28
2022-08-22T17:31:33.631Z,2.33
2022-08-22T17:33:40.165Z,2.20
2022-08-22T17:36:08.220Z,2.42
2022-08-22T17:38:46.398Z,2.25
2022-08-22T17:40:58.901Z,2.25
2022-08-22T17:43:03.502Z,2.40
2022-08-22T17:45:10.998Z,2.50
2022-08-22T17:47:16.011Z,2.30
2022-08-22T17:49:35.976Z,2.38
2022-08-22T17:51:51.126Z,2.90
2022-08-22T17:53:59.167Z,2.90
2022-08-22T17:56:04.857Z,2.65
2022-08-22T17:58:11.476Z,2.78
2022-08-22T18:00:13.176Z,2.55
2022-08-22T18:02:17.560Z,2.80
2022-08-22T18:04:45.622Z,2.60
2022-08-22T18:07:09.045Z,2.60
2022-08-22T18:09:21.421Z,2.72
2022-08-22T18:11:27.967Z,2.38
2022-08-22T18:13:45.602Z,2.60
2022-08-22T18:15:57.003Z,2.30
2022-08-22T18:18:07.867Z,2.40
2022-08-22T18:20:21.490Z,2.00
2022-08-22T18:22:31.737Z,2.25
2022-08-22T18:26:58.174Z,2.53
2022-08-22T18:29:05.433Z,2.40
2022-08-22T18:31:08.543Z,2.15
2022-08-22T18:33:24.853Z,2.80
2022-08-22T18:35:45.505Z,2.50
2022-08-22T18:38:02.204Z,2.03
2022-08-22T18:40:08.419Z,2.03
2022-08-22T18:42:18.139Z,2.15
2022-08-22T18:44:25.725Z,2.13
2022-08-22T18:46:33.189Z,2.50
2022-08-22T18:48:54.231Z,2.17
2022-08-22T18:51:25.016Z,2.25
2022-08-22T18:53:39.303Z,2.28
2022-08-22T18:55:54.414Z,2.45
2022-08-22T18:58:02.340Z,2.45
2022-08-22T19:00:05.761Z,2.80
2022-08-22T19:02:16.726Z,2.63
2022-08-22T19:04:18.257Z,2.75
2022-08-22T19:06:19.574Z,2.58
2022-08-22T19:08:33.598Z,2.47
2022-08-22T19:11:04.288Z,2.40
2022-08-22T19:13:05.559Z,2.42
2022-08-22T19:15:06.964Z,2.60
2022-08-22T19:17:20.511Z,2.42
2022-08-22T19:19:57.221Z,2.50
2022-08-22T19:22:20.016Z,2.50
2022-08-22T19:24:27.011Z,2.80
2022-08-22T19:26:40.347Z,2.72
2022-08-22T19:28:42.114Z,2.50
2022-08-22T19:30:45.422Z,2.53
2022-08-22T19:32:46.702Z,2.30
2022-08-22T19:34:48.152Z,2.40
2022-08-22T19:37:09.486Z,2.58
2022-08-22T19:39:31.993Z,2.80
2022-08-22T19:41:41.295Z,2.60
2022-08-22T19:43:44.179Z,2.80
2022-08-22T19:45:45.538Z,2.60
2022-08-22T19:47:54.045Z,2.35
2022-08-22T19:49:55.433Z,2.50
2022-08-22T19:52:07.502Z,2.30
2022-08-22T19:54:17.316Z,2.70
2022-08-22T19:56:27.726Z,2.40
2022-08-22T19:58:41.088Z,2.78
2022-08-22T20:00:53.770Z,2.70
2022-08-22T20:02:55.402Z,2.58
2022-08-22T20:04:59.957Z,2.92
2022-08-22T20:07:21.533Z,2.70
2022-08-22T20:11:53.285Z,2.78
2022-08-22T20:14:15.837Z,2.72
2022-08-22T20:16:23.389Z,2.70
2022-08-22T20:18:47.659Z,2.45
2022-08-22T20:20:58.345Z,2.50
2022-08-22T20:23:11.495Z,2.58
2022-08-22T20:25:42.408Z,3.03
2022-08-22T20:27:49.946Z,2.33
2022-08-22T20:29:54.273Z,2.67
2022-08-22T20:31:58.805Z,2.47
2022-08-22T20:34:08.421Z,2.47
2022-08-22T20:36:27.953Z,2.63
2022-08-22T20:38:43.465Z,2.50
2022-08-22T20:41:11.492Z,2.85
2022-08-22T20:43:25.242Z,2.47
2022-08-22T20:45:30.643Z,2.70
2022-08-22T20:47:40.902Z,2.60
2022-08-22T20:49:43.617Z,2.78
2022-08-22T20:52:05.641Z,2.92
2022-08-22T20:54:16.324Z,3.03
2022-08-22T20:56:30.762Z,3.10
2022-08-22T20:58:38.780Z,2.58
2022-08-22T21:00:42.091Z,2.85
2022-08-22T21:02:49.592Z,3.08
2022-08-22T21:05:01.745Z,2.90
2022-08-22T21:07:03.219Z,2.72
2022-08-22T21:09:41.567Z,2.75
2022-08-22T21:11:49.661Z,3.08
2022-08-22T21:13:51.691Z,3.03
2022-08-22T21:15:55.080Z,2.80
2022-08-22T21:17:56.509Z,2.78
2022-08-22T21:19:58.309Z,2.58
2022-08-22T21:22:16.977Z,2.42
2022-08-22T21:24:18.391Z,2.80
2022-08-22T21:26:22.275Z,2.78
2022-08-22T21:28:28.174Z,2.97
2022-08-22T21:30:30.085Z,3.00
2022-08-22T21:32:42.747Z,2.88
2022-08-22T21:34:45.948Z,3.35
2022-08-22T21:36:50.055Z,3.00
2022-08-22T21:39:12.808Z,2.40
2022-08-22T21:41:19.358Z,2.70
2022-08-22T21:43:36.733Z,2.92
2022-08-22T21:45:38.212Z,2.67
2022-08-22T21:47:41.222Z,2.50
2022-08-22T21:50:01.142Z,2.55
2022-08-22T21:52:02.508Z,2.83
2022-08-22T21:54:19.836Z,3.05
2022-08-22T21:56:28.547Z,3.15
2022-08-22T21:58:36.640Z,2.70
2022-08-22T22:00:48.555Z,2.83
2022-08-22T22:02:50.347Z,2.80
2022-08-22T22:04:51.658Z,2.92
2022-08-22T22:06:53.616Z,2.72
2022-08-22T22:08:55.252Z,2.92
2022-08-22T22:10:59.105Z,2.90
2022-08-22T22:13:00.653Z,2.85
2022-08-22T22:15:02.687Z,3.10
2022-08-22T22:17:04.126Z,3.20
2022-08-22T22:19:06.739Z,2.80
2022-08-22T22:21:08.346Z,2.83
2022-08-22T22:23:10.277Z,2.38
2022-08-22T22:25:39.506Z,2.97
2022-08-22T22:27:33.205Z,2.97
2022-08-22T22:29:35.347Z,2.72
2022-08-22T22:31:36.639Z,3.22
2022-08-22T22:33:39.020Z,2.90
2022-08-22T22:35:43.675Z,2.90
2022-08-22T22:37:45.659Z,3.55
2022-08-22T22:39:47.113Z,2.53
2022-08-22T22:41:48.561Z,2.67
2022-08-22T22:43:49.899Z,2.70
2022-08-22T22:45:51.204Z,2.60
2022-08-22T22:47:52.647Z,2.67
2022-08-22T22:49:54.419Z,2.97
2022-08-22T22:51:55.892Z,3.20
2022-08-22T22:53:57.245Z,2.78
2022-08-22T22:56:00.412Z,3.03
2022-08-22T22:58:02.229Z,2.72
2022-08-22T23:00:05.236Z,2.47
2022-08-22T23:02:11.209Z,2.65
2022-08-22T23:04:12.508Z,3.10
2022-08-22T23:06:14.927Z,2.80
2022-08-22T23:08:16.313Z,2.88
2022-08-22T23:10:21.767Z,3.08
2022-08-22T23:12:24.451Z,2.83
2022-08-22T23:14:25.796Z,3.05
2022-08-22T23:16:28.333Z,3.10
2022-08-22T23:18:30.334Z,2.95
2022-08-22T23:20:32.003Z,3.03
2022-08-22T23:22:33.404Z,2.90
2022-08-22T23:24:35.747Z,3.10
2022-08-22T23:26:37.385Z,3.20
2022-08-22T23:28:38.894Z,2.88
2022-08-22T23:30:40.188Z,2.85
2022-08-22T23:32:41.536Z,2.83
2022-08-22T23:34:45.880Z,3.40
2022-08-22T23:36:47.431Z,3.00
2022-08-22T23:38:49.010Z,2.88
2022-08-22T23:40:50.514Z,2.70
2022-08-22T23:42:51.806Z,3.30
2022-08-22T23:44:53.162Z,3.13
2022-08-22T23:46:54.592Z,3.10
2022-08-22T23:48:56.067Z,3.30
2022-08-22T23:50:57.426Z,3.40
2022-08-22T23:52:58.797Z,3.72
2022-08-22T23:55:00.127Z,3.90
2022-08-22T23:57:02.563Z,4.97
2022-08-22T23:59:05.912Z,4.90
